Main page
METAR-TAF:

METAR-TAF

Airports :

Qeshm International Airport

Qeshm, Iran

latitude: 26-45-18N, longitude: 055-54-08E, elevation: 12 m

Current weather observation

The report was made 15 minutes ago, at 21:00 UTC
Calm wind
Temperature 20°C
Humidity 94%
Pressure 1014 hPa
Visibility: 5000 m
Few clouds at a height of 2500 ft, Cumulonimbus.
Scattered clouds at a height of 3000 ft
Overcast at a height of 10000 ft
light rain

METAR: OIKQ 102100Z 00000KT 5000 -RA FEW025CB SCT030 OVC100 20/19 Q1014

Time: 00:45 (21:15 UTC)


TAF: missing

Weather observations and forecasts of more than 4000 airports (METAR and TAF reports).

The available stations are represented by yellow and red dots on the map.

Hover mouse over dot to see the name of the station.

Then click to see weather observations and forecasts.

To change the map : click on the green buttons with a black cross to zoom in, on the green button with a dash to zoom out, or on the green arrows for adjacent maps.


METAR-TAF: